Time;durP1;ratioP1;P1;durP2;ratioP2;P2;SDS_P1;SDS_P2;PMS_P1;PMS_P2;Temp;Humidity;BMP_temperature;BMP_pressure;BME280_temperature;BME280_humidity;BME280_pressure;Samples;Min_cycle;Max_cycle;Signal;HPM_P1;HPM_P2
2022/04/27 00:01:23;;;;;;;24.00;5.47;;;;;;;10.26;75.41;99638.72;10413493;28;20069;-79
2022/04/27 00:06:24;;;;;;;21.40;5.55;;;;;;;11.18;76.32;99826.97;10412014;28;20073;-79
2022/04/27 00:11:25;;;;;;;22.02;5.30;;;;;;;9.82;76.69;99618.31;10414197;28;20057;-78
2022/04/27 00:16:26;;;;;;;23.67;5.43;;;;;;;10.60;75.95;99712.56;10414273;28;20045;-79
2022/04/27 00:21:27;;;;;;;23.42;4.85;;;;;;;9.81;75.12;99582.16;10414390;28;20037;-78
2022/04/27 00:26:27;;;;;;;25.02;8.65;;;;;;;10.28;74.94;99682.69;10413113;28;20065;-78
2022/04/27 00:31:31;;;;;;;29.35;7.80;;;;;;;10.35;75.21;99712.00;10412079;28;20079;-78
2022/04/27 00:36:32;;;;;;;47.67;14.67;;;;;;;10.50;74.53;99750.03;10413123;28;20045;-78
2022/04/27 00:41:33;;;;;;;44.78;13.50;;;;;;;10.29;74.80;99731.31;10413434;28;20272;-78
2022/04/27 00:46:34;;;;;;;37.95;8.63;;;;;;;10.17;75.22;99730.91;10412664;28;20049;-78
2022/04/27 00:51:34;;;;;;;34.03;10.98;;;;;;;9.96;75.60;99689.13;10411102;28;20169;-78
2022/04/27 00:56:37;;;;;;;34.25;9.95;;;;;;;10.21;75.60;99753.41;10413168;28;20566;-78
2022/04/27 01:01:38;;;;;;;42.42;14.32;;;;;;;10.94;75.86;99884.69;10413299;28;20052;-78
2022/04/27 01:06:40;;;;;;;54.17;14.77;;;;;;;10.92;75.94;99896.56;10412497;28;20132;-78
2022/04/27 01:11:41;;;;;;;25.00;9.52;;;;;;;10.09;75.74;99765.47;10411816;28;20062;-78
2022/04/27 01:16:41;;;;;;;34.63;9.75;;;;;;;10.60;75.68;99855.16;10412897;28;20037;-76
2022/04/27 01:21:42;;;;;;;32.20;9.02;;;;;;;10.23;75.60;99849.63;10409870;28;20033;-76
2022/04/27 01:26:43;;;;;;;35.20;11.23;;;;;;;9.30;76.03;99698.56;10411306;28;20214;-77
2022/04/27 01:31:44;;;;;;;37.58;8.75;;;;;;;10.18;76.64;99859.94;10411376;28;20100;-76
2022/04/27 01:36:46;;;;;;;64.93;23.48;;;;;;;10.49;76.28;99910.34;10412308;28;20512;-77
2022/04/27 01:41:46;;;;;;;44.13;15.02;;;;;;;9.84;76.63;99807.25;10412456;28;20049;-76
2022/04/27 01:46:47;;;;;;;28.35;10.07;;;;;;;10.17;76.56;99876.88;10419058;28;20046;-76
2022/04/27 01:57:07;;;;;;;27.77;7.57;;;;;;;9.60;76.37;99814.41;10418046;28;20098;-77
2022/04/27 02:02:09;;;;;;;28.95;6.78;;;;;;;9.88;76.30;99888.19;10419147;28;20512;-77
2022/04/27 02:07:10;;;;;;;31.73;10.82;;;;;;;9.20;76.75;99782.78;10417607;28;20037;-77
2022/04/27 02:12:11;;;;;;;25.55;6.32;;;;;;;9.54;77.39;99832.81;10415194;28;20034;-76
2022/04/27 02:17:12;;;;;;;24.33;7.03;;;;;;;7.95;77.31;99584.00;10390433;28;20152;-77
2022/04/27 02:22:13;;;;;;;20.92;7.45;;;;;;;9.13;76.74;99786.13;10376684;28;20042;-77
2022/04/27 02:27:13;;;;;;;26.48;6.88;;;;;;;9.41;77.31;99817.47;10376536;28;20046;-77
2022/04/27 02:32:15;;;;;;;26.95;5.97;;;;;;;9.14;77.00;99748.03;10376928;28;20054;-77
2022/04/27 02:37:16;;;;;;;17.00;5.25;;;;;;;10.13;77.01;99895.97;10376533;28;20045;-77
2022/04/27 02:42:17;;;;;;;30.27;6.95;;;;;;;9.92;77.03;99857.63;10375808;28;20433;-77
2022/04/27 02:47:18;;;;;;;39.67;6.38;;;;;;;10.48;77.75;99934.44;10375293;28;20041;-77
2022/04/27 02:52:19;;;;;;;21.92;6.30;;;;;;;9.46;77.91;99716.22;10376042;28;20037;-77
2022/04/27 02:57:21;;;;;;;18.95;5.85;;;;;;;9.20;77.46;99618.50;10389086;28;20453;-78
2022/04/27 03:02:22;;;;;;;19.23;5.35;;;;;;;11.14;76.12;99831.00;10415501;28;20046;-77
2022/04/27 03:07:22;;;;;;;16.70;4.90;;;;;;;11.60;74.18;99799.66;10411744;28;20058;-77
2022/04/27 03:12:23;;;;;;;29.95;5.18;;;;;;;12.97;72.55;99898.03;10370971;28;20045;-76
2022/04/27 03:17:24;;;;;;;17.00;4.60;;;;;;;13.21;69.76;99757.25;10370691;28;20096;-78
2022/04/27 03:22:25;;;;;;;21.80;4.75;;;;;;;14.12;67.38;99784.38;10369538;28;20493;-77
2022/04/27 03:27:26;;;;;;;23.15;5.35;;;;;;;15.75;65.54;99929.00;10373370;28;20108;-77
2022/04/27 03:32:27;;;;;;;23.92;4.97;;;;;;;15.39;63.13;99757.38;10373488;28;20038;-77
2022/04/27 03:37:27;;;;;;;21.67;5.10;;;;;;;17.14;61.46;99926.47;10374339;28;20405;-77
2022/04/27 03:42:28;;;;;;;20.23;4.72;;;;;;;16.66;59.85;99799.16;10374573;28;20060;-76
2022/04/27 03:47:29;;;;;;;21.27;4.90;;;;;;;17.45;58.40;99852.22;10373407;28;20550;-77
2022/04/27 03:52:31;;;;;;;16.70;4.53;;;;;;;18.02;56.20;99841.97;10373768;28;20053;-76
2022/04/27 03:57:31;;;;;;;17.92;4.50;;;;;;;19.32;54.85;99929.88;10373344;28;20506;-77
2022/04/27 04:02:32;;;;;;;24.90;4.60;;;;;;;19.45;53.94;99947.69;10373878;28;20070;-76
2022/04/27 04:07:34;;;;;;;17.50;4.30;;;;;;;18.98;54.11;99888.47;10372206;28;20061;-74
2022/04/27 04:12:35;;;;;;;21.45;4.43;;;;;;;19.36;52.94;99890.66;10405824;28;20484;-76
2022/04/27 04:17:35;;;;;;;17.00;4.22;;;;;;;20.06;52.14;99948.97;10372554;28;20073;-76
2022/04/27 04:22:36;;;;;;;15.40;4.00;;;;;;;19.61;51.64;99863.41;10372609;28;20133;-76
2022/04/27 04:32:56;;;;;;;20.25;4.40;;;;;;;20.50;50.51;99937.66;10372247;28;20065;-76
2022/04/27 04:37:57;;;;;;;21.75;5.15;;;;;;;19.79;50.38;99832.00;10370945;28;20088;-76
2022/04/27 04:42:57;;;;;;;14.45;4.18;;;;;;;19.65;50.56;99841.41;10370527;28;20037;-82
2022/04/27 04:47:58;;;;;;;21.63;4.70;;;;;;;19.74;50.44;99873.16;10394112;28;20047;-78
2022/04/27 04:52:59;;;;;;;30.48;4.63;;;;;;;19.61;50.87;99898.44;10401354;28;20132;-77
2022/04/27 04:58:00;;;;;;;16.20;4.20;;;;;;;19.62;51.37;99945.06;10371243;28;20537;-76
2022/04/27 05:03:01;;;;;;;17.17;4.05;;;;;;;19.35;52.28;99948.28;10372037;28;20053;-77
2022/04/27 05:08:04;;;;;;;19.40;5.07;;;;;;;18.93;52.34;99885.66;10371917;28;20061;-78
2022/04/27 05:13:05;;;;;;;15.27;4.22;;;;;;;19.37;51.71;99948.84;10371557;28;20502;-77
2022/04/27 05:18:05;;;;;;;13.15;3.80;;;;;;;18.95;51.34;99866.59;10374299;28;20088;-77
2022/04/27 05:23:06;;;;;;;17.02;3.88;;;;;;;19.38;51.16;99920.03;10379719;28;20041;-78
2022/04/27 05:28:07;;;;;;;27.50;3.92;;;;;;;19.52;50.89;99907.16;10378702;28;20052;-78
2022/04/27 05:33:08;;;;;;;15.52;3.65;;;;;;;19.73;51.21;99905.72;10378620;28;20034;-77
2022/04/27 05:38:10;;;;;;;15.93;3.60;;;;;;;20.26;50.69;99916.19;10378652;28;20042;-78
2022/04/27 05:43:11;;;;;;;24.60;3.80;;;;;;;20.82;50.00;99959.56;10378286;28;20026;-78
2022/04/27 05:48:12;;;;;;;20.23;3.28;;;;;;;20.85;49.33;99956.38;10378479;28;20417;-77
2022/04/27 05:53:12;;;;;;;19.65;3.65;;;;;;;20.65;48.99;99902.03;10377981;28;20042;-76
2022/04/27 05:58:13;;;;;;;16.25;2.80;;;;;;;20.57;48.61;99846.59;10384379;28;20045;-75
2022/04/27 06:03:14;;;;;;;7.10;2.60;;;;;;;21.08;48.35;99878.94;10381641;28;20045;-77
2022/04/27 06:08:15;;;;;;;17.90;3.40;;;;;;;21.95;48.23;99966.56;10377546;28;20268;-78
2022/04/27 06:13:17;;;;;;;24.00;3.95;;;;;;;21.72;48.18;99895.47;10377826;28;20080;-78
2022/04/27 06:18:18;;;;;;;12.82;3.58;;;;;;;22.35;47.81;99944.59;10376285;28;20120;-78
2022/04/27 06:23:19;;;;;;;14.63;3.05;;;;;;;21.54;47.71;99820.94;10376688;28;20096;-76
2022/04/27 06:28:19;;;;;;;33.15;4.55;;;;;;;21.84;47.66;99833.97;10376755;28;20384;-76
2022/04/27 06:33:20;;;;;;;13.48;3.45;;;;;;;22.49;47.84;99915.22;10376507;28;20037;-77
2022/04/27 06:38:21;;;;;;;14.23;4.30;;;;;;;23.04;48.03;99957.41;10376804;28;20133;-77
2022/04/27 06:43:22;;;;;;;25.70;4.50;;;;;;;22.97;48.47;99917.00;10375481;28;20038;-77
2022/04/27 06:48:23;;;;;;;21.92;4.47;;;;;;;23.53;48.49;99924.63;10375793;28;20037;-76
2022/04/27 06:53:23;;;;;;;20.77;5.40;;;;;;;24.04;48.75;99960.13;10376300;28;20054;-77
2022/04/27 06:58:24;;;;;;;20.05;5.03;;;;;;;24.26;48.43;99923.81;10411767;28;20040;-76
2022/04/27 07:03:26;;;;;;;19.45;5.13;;;;;;;24.49;48.53;99950.50;10416323;28;20037;-78
2022/04/27 07:08:28;;;;;;;24.92;4.88;;;;;;;23.62;47.81;99757.66;10415738;28;20057;-77
2022/04/27 07:13:29;;;;;;;28.65;5.28;;;;;;;24.75;47.59;99932.31;10415372;28;20037;-77
2022/04/27 07:18:30;;;;;;;17.30;4.20;;;;;;;24.80;47.04;99931.53;10415769;28;20041;-79
2022/04/27 07:23:31;;;;;;;18.70;3.92;;;;;;;25.13;46.68;99935.59;10415169;28;20405;-77
2022/04/27 07:28:32;;;;;;;18.98;4.20;;;;;;;24.87;46.21;99869.56;10414684;28;20042;-77
2022/04/27 07:33:34;;;;;;;16.60;4.15;;;;;;;24.81;46.17;99803.56;10415160;28;20041;-77
2022/04/27 07:38:35;;;;;;;33.08;5.25;;;;;;;25.13;46.30;99859.50;10414937;28;20041;-77
2022/04/27 07:43:36;;;;;;;21.33;4.90;;;;;;;25.36;46.33;99849.88;10415078;28;20041;-75
2022/04/27 07:48:37;;;;;;;21.90;5.32;;;;;;;25.36;46.55;99825.41;10414542;28;20111;-77
2022/04/27 07:53:38;;;;;;;21.90;5.30;;;;;;;25.64;46.78;99820.41;10413688;28;20037;-77
2022/04/27 07:58:39;;;;;;;23.55;5.18;;;;;;;26.56;46.84;99915.09;10414267;28;20053;-75
2022/04/27 08:03:40;;;;;;;19.20;4.75;;;;;;;26.20;46.39;99830.91;10414351;28;20068;-76
2022/04/27 08:08:40;;;;;;;18.67;5.43;;;;;;;26.56;46.38;99838.81;10414437;28;20147;-77
2022/04/27 08:13:42;;;;;;;24.58;5.55;;;;;;;26.38;45.98;99816.63;10395383;28;20136;-76
2022/04/27 08:18:45;;;;;;;24.63;5.27;;;;;;;27.06;45.57;99902.13;10412339;28;20151;-77
2022/04/27 08:23:47;;;;;;;17.83;5.00;;;;;;;27.17;45.40;99900.13;10412940;28;20049;-76
2022/04/27 08:28:48;;;;;;;17.42;4.85;;;;;;;26.74;44.80;99797.22;10413030;28;20499;-77
2022/04/27 08:33:49;;;;;;;22.02;5.20;;;;;;;26.64;44.64;99754.56;10413215;28;20136;-76
2022/04/27 08:38:51;;;;;;;25.65;5.93;;;;;;;26.91;44.59;99763.28;10412986;28;20041;-77
2022/04/27 08:43:52;;;;;;;52.45;6.10;;;;;;;27.84;44.04;99886.53;10412643;28;20071;-77
2022/04/27 08:48:53;;;;;;;22.83;5.22;;;;;;;27.12;42.97;99756.47;10413194;28;20037;-77
2022/04/27 08:53:53;;;;;;;28.05;5.28;;;;;;;26.97;42.11;99794.81;10417786;28;20107;-77
2022/04/27 08:58:54;;;;;;;25.02;4.75;;;;;;;27.54;40.86;99872.16;10421115;28;20507;-77
2022/04/27 09:04:12;;;;;;;23.63;4.57;;;;;;;27.88;39.85;99847.44;10420762;28;20037;-78
2022/04/27 09:09:32;;;;;;;15.40;3.97;;;;;;;28.04;39.27;99831.63;10420863;28;20497;-77
2022/04/27 09:14:38;;;;;;;19.63;4.68;;;;;;;27.85;38.10;99774.34;10420517;28;20083;-78
2022/04/27 09:25:02;;;;;;;22.30;5.00;;;;;;;28.34;38.85;99799.47;10419921;28;20046;-78
2022/04/27 09:30:10;;;;;;;18.05;4.88;;;;;;;28.01;37.68;99741.34;10419322;28;20041;-78
2022/04/27 09:35:13;;;;;;;18.83;4.38;;;;;;;28.03;37.85;99687.22;10419820;28;20040;-78
2022/04/27 09:40:14;;;;;;;21.27;4.90;;;;;;;28.45;37.62;99770.91;10418962;28;20057;-76
2022/04/27 09:45:25;;;;;;;16.52;4.20;;;;;;;28.80;37.19;99801.41;10418721;28;20541;-76
2022/04/27 09:50:26;;;;;;;21.52;4.57;;;;;;;28.92;37.65;99804.44;10419088;28;20068;-75
2022/04/27 09:55:27;;;;;;;19.95;5.13;;;;;;;28.77;38.15;99763.75;10419174;28;20487;-77
2022/04/27 10:00:29;;;;;;;24.02;4.75;;;;;;;28.59;38.60;99711.59;10418574;28;20042;-76
2022/04/27 10:05:29;;;;;;;18.10;4.50;;;;;;;28.86;38.63;99727.19;10418656;28;20077;-77
2022/04/27 10:10:31;;;;;;;16.30;4.53;;;;;;;29.48;38.60;99810.72;10418375;28;20138;-77
2022/04/27 10:15:33;;;;;;;20.02;4.68;;;;;;;28.95;38.32;99719.09;10417567;28;20071;-76
2022/04/27 10:20:34;;;;;;;27.15;4.68;;;;;;;29.59;38.16;99792.97;10417964;28;20077;-78
2022/04/27 10:25:35;;;;;;;20.73;5.05;;;;;;;29.15;38.32;99701.47;10418593;28;20497;-75
2022/04/27 10:30:45;;;;;;;23.30;5.10;;;;;;;29.15;37.91;99687.78;10416983;28;20061;-77
2022/04/27 10:35:46;;;;;;;17.25;4.78;;;;;;;29.64;38.16;99749.06;10417515;28;20547;-75
2022/04/27 10:40:47;;;;;;;16.10;5.75;;;;;;;30.33;37.87;99791.78;10416718;28;20045;-76
2022/04/27 10:45:48;;;;;;;20.75;5.15;;;;;;;29.86;38.40;99714.63;10416640;28;20443;-76
2022/04/27 10:50:57;;;;;;;16.77;4.65;;;;;;;30.47;38.30;99774.16;10416749;28;20065;-77
2022/04/27 10:55:59;;;;;;;20.02;4.57;;;;;;;30.22;37.84;99744.69;10416113;28;20044;-76
2022/04/27 11:01:03;;;;;;;24.07;4.73;;;;;;;30.40;37.22;99767.50;10416493;28;20049;-77
2022/04/27 11:06:09;;;;;;;24.52;4.95;;;;;;;29.63;36.77;99640.72;10415855;28;20049;-77
2022/04/27 11:11:10;;;;;;;21.63;4.55;;;;;;;30.24;35.72;99753.38;10416656;28;20057;-76
2022/04/27 11:16:13;;;;;;;18.48;4.53;;;;;;;29.82;35.05;99686.25;10415704;28;20045;-80
2022/04/27 11:21:14;;;;;;;21.40;5.18;;;;;;;30.18;35.62;99754.59;10415467;28;20147;-77
2022/04/27 11:26:15;;;;;;;17.40;4.88;;;;;;;30.12;34.87;99739.44;10415431;28;20116;-75
2022/04/27 11:31:16;;;;;;;15.27;4.65;;;;;;;30.11;35.14;99727.66;10415824;28;20033;-76
2022/04/27 11:36:23;;;;;;;12.75;4.22;;;;;;;29.98;34.60;99674.59;10415826;28;20056;-76
2022/04/27 11:41:24;;;;;;;16.60;4.30;;;;;;;30.64;34.90;99750.69;10415058;28;20425;-77
2022/04/27 11:46:36;;;;;;;19.83;4.20;;;;;;;30.60;34.28;99761.47;10414201;28;20072;-79
2022/04/27 11:51:36;;;;;;;21.20;4.35;;;;;;;29.54;34.78;99612.47;10414487;28;20045;-78
2022/04/27 11:56:39;;;;;;;15.63;4.10;;;;;;;29.99;35.17;99687.16;10413702;28;20552;-76
2022/04/27 12:01:50;;;;;;;25.40;4.60;;;;;;;29.78;34.92;99642.25;10413567;28;20049;-76
2022/04/27 12:06:51;;;;;;;19.67;4.78;;;;;;;30.17;34.96;99699.03;10413467;28;20501;-78
2022/04/27 12:11:53;;;;;;;19.95;4.30;;;;;;;30.18;34.79;99697.88;10414672;28;20132;-77
2022/04/27 12:16:55;;;;;;;21.25;4.63;;;;;;;29.76;35.13;99617.13;10413840;28;20079;-78
2022/04/27 12:22:15;;;;;;;;;;;;;;;30.83;35.12;99756.75;10413883;28;20045;-78
2022/04/27 12:27:20;;;;;;;21.55;6.28;;;;;;;29.88;35.26;99635.72;10403757;28;19917;-72
2022/04/27 12:32:23;;;;;;;19.65;4.50;;;;;;;29.82;35.48;99621.34;10375217;28;20053;-73
2022/04/27 12:37:30;;;;;;;;;;;;;;;30.84;35.25;99761.13;10390196;28;20440;-73
2022/04/27 12:42:31;;;;;;;20.30;4.30;;;;;;;30.51;35.52;99771.59;10388184;28;19960;-73
2022/04/27 12:47:45;;;;;;;33.38;7.28;;;;;;;30.46;36.49;99771.75;10398148;28;20076;-72
2022/04/27 12:52:47;;;;;;;23.48;4.30;;;;;;;30.36;36.66;99742.66;10394383;28;20489;-72
2022/04/27 12:57:50;;;;;;;17.75;5.13;;;;;;;30.56;35.93;99757.75;10371332;28;20544;-72
2022/04/27 13:02:50;;;;;;;15.00;4.53;;;;;;;29.93;35.23;99643.81;10371453;28;20042;-72
2022/04/27 13:07:51;;;;;;;10.90;3.92;;;;;;;30.24;35.49;99737.78;10371831;28;20057;-74
2022/04/27 13:12:53;;;;;;;25.38;5.15;;;;;;;30.03;35.25;99736.63;10372359;28;20057;-72
2022/04/27 13:17:53;;;;;;;25.25;4.85;;;;;;;29.77;35.69;99698.16;10371597;28;20579;-73
2022/04/27 13:22:54;;;;;;;20.00;4.85;;;;;;;29.90;35.24;99732.84;10408085;28;20087;-73
2022/04/27 13:27:55;;;;;;;23.10;4.88;;;;;;;28.98;35.39;99587.22;10411508;28;20045;-73
2022/04/27 13:32:56;;;;;;;20.90;4.65;;;;;;;29.90;35.95;99732.03;10410888;28;20049;-73
2022/04/27 13:37:57;;;;;;;18.77;4.20;;;;;;;29.53;36.01;99688.28;10413393;28;20037;-74
2022/04/27 13:42:58;;;;;;;14.88;4.10;;;;;;;29.89;35.25;99758.63;10418077;28;20037;-74
2022/04/27 13:47:59;;;;;;;16.17;4.63;;;;;;;29.66;35.11;99740.56;10418759;28;20077;-72
2022/04/27 13:53:00;;;;;;;25.10;4.00;;;;;;;29.34;35.15;99706.78;10419241;28;20128;-73
2022/04/27 13:58:01;;;;;;;17.08;4.15;;;;;;;29.57;35.32;99762.34;10418772;28;20283;-73
2022/04/27 14:03:01;;;;;;;23.70;4.05;;;;;;;28.74;35.05;99671.41;10418713;28;20065;-74
2022/04/27 14:08:02;;;;;;;18.73;4.47;;;;;;;28.46;35.63;99632.38;10417376;28;20057;-72
2022/04/27 14:13:17;;;;;;;20.10;4.05;;;;;;;29.17;36.40;99769.53;10418018;28;20069;-72
2022/04/27 14:18:18;;;;;;;13.68;4.35;;;;;;;28.54;36.13;99695.31;10397308;28;20113;-72
2022/04/27 14:23:18;;;;;;;18.88;4.18;;;;;;;29.02;36.48;99782.41;10410643;28;20092;-73
2022/04/27 14:28:21;;;;;;;23.33;4.20;;;;;;;28.85;36.58;99757.56;10413552;28;20100;-73
2022/04/27 14:33:21;;;;;;;20.58;4.35;;;;;;;27.55;36.88;99546.38;10411242;28;20052;-74
2022/04/27 14:38:22;;;;;;;14.95;3.70;;;;;;;28.63;37.14;99745.44;10416785;28;20041;-74
2022/04/27 14:43:23;;;;;;;25.63;4.82;;;;;;;28.72;37.68;99788.44;10417531;28;20041;-72
2022/04/27 14:48:24;;;;;;;16.30;3.67;;;;;;;28.54;37.59;99790.13;10417063;28;20149;-72
2022/04/27 14:53:24;;;;;;;14.65;4.13;;;;;;;28.31;38.23;99779.03;10416132;28;20033;-73
2022/04/27 14:58:26;;;;;;;17.92;4.60;;;;;;;28.10;38.31;99770.38;10416022;28;20053;-73
2022/04/27 15:03:28;;;;;;;18.80;4.10;;;;;;;28.10;38.56;99808.59;10416820;28;20041;-73
2022/04/27 15:08:29;;;;;;;13.18;3.70;;;;;;;27.47;39.51;99746.22;10416115;28;20540;-72
2022/04/27 15:13:29;;;;;;;21.52;4.30;;;;;;;27.15;40.06;99744.19;10415423;28;20067;-73
2022/04/27 15:18:30;;;;;;;32.45;5.10;;;;;;;26.90;40.58;99772.56;10415035;28;20046;-73
2022/04/27 15:23:31;;;;;;;22.42;4.70;;;;;;;26.79;41.27;99826.34;10415257;28;20041;-71
2022/04/27 15:28:32;;;;;;;22.40;4.65;;;;;;;26.50;41.40;99829.06;10415299;28;20477;-72
2022/04/27 15:33:32;;;;;;;25.50;5.35;;;;;;;25.37;42.24;99712.03;10414644;28;20463;-72
2022/04/27 15:38:33;;;;;;;21.48;4.68;;;;;;;25.90;43.10;99849.09;10414715;28;20045;-74
2022/04/27 15:43:35;;;;;;;27.25;5.25;;;;;;;24.79;44.00;99728.84;10406705;28;20042;-73
2022/04/27 15:48:35;;;;;;;18.23;4.70;;;;;;;25.09;45.24;99825.75;10377302;28;20124;-73
2022/04/27 15:53:36;;;;;;;25.85;5.15;;;;;;;24.50;46.52;99781.09;10372953;28;20128;-72
2022/04/27 15:58:37;;;;;;;18.25;4.80;;;;;;;24.74;47.72;99872.81;10372770;28;20037;-73
2022/04/27 16:03:38;;;;;;;32.58;4.75;;;;;;;24.33;49.33;99859.25;10371780;28;20413;-75
2022/04/27 16:08:42;;;;;;;21.15;5.10;;;;;;;24.02;50.65;99861.09;10380098;28;20464;-74
2022/04/27 16:13:43;;;;;;;22.70;5.18;;;;;;;22.98;51.57;99739.06;10412967;28;20124;-72
2022/04/27 16:18:47;;;;;;;26.90;5.30;;;;;;;23.45;52.62;99855.50;10413853;28;20139;-72
2022/04/27 16:23:48;;;;;;;20.80;4.47;;;;;;;22.42;53.34;99727.88;10413785;28;20052;-73
2022/04/27 16:28:50;;;;;;;35.85;5.72;;;;;;;22.34;54.00;99746.22;10413612;28;20043;-72
2022/04/27 16:33:52;;;;;;;27.02;6.30;;;;;;;22.78;54.62;99853.47;10412667;28;20091;-73
2022/04/27 16:38:52;;;;;;;23.83;5.30;;;;;;;21.82;54.78;99738.75;10413575;28;20041;-74
2022/04/27 16:43:56;;;;;;;19.52;5.18;;;;;;;22.70;55.85;99921.63;10412424;28;20061;-76
2022/04/27 16:48:57;;;;;;;18.88;5.47;;;;;;;22.62;55.73;99924.81;10412136;28;20046;-77
2022/04/27 16:53:58;;;;;;;18.08;4.40;;;;;;;21.64;56.17;99799.41;10401334;28;20042;-76
2022/04/27 16:59:00;;;;;;;20.92;4.60;;;;;;;21.79;56.52;99860.13;10389595;28;20041;-74
2022/04/27 17:04:01;;;;;;;21.50;5.15;;;;;;;21.79;56.67;99885.28;10410691;28;20049;-76
2022/04/27 17:09:03;;;;;;;21.33;5.22;;;;;;;22.09;57.08;99965.94;10409866;28;20448;-76
2022/04/27 17:14:05;;;;;;;35.55;5.80;;;;;;;21.03;57.16;99820.28;10413649;28;20420;-75
2022/04/27 17:19:06;;;;;;;22.45;4.65;;;;;;;20.89;57.31;99811.72;10415301;28;20056;-76
2022/04/27 17:24:07;;;;;;;20.88;5.13;;;;;;;20.90;57.54;99840.31;10412781;28;20046;-76
2022/04/27 17:29:09;;;;;;;21.40;4.63;;;;;;;21.37;57.83;99945.28;10419935;28;20041;-75
2022/04/27 17:34:12;;;;;;;20.88;4.45;;;;;;;21.68;57.92;100015.16;10406174;28;20543;-77
2022/04/27 17:39:13;;;;;;;20.77;5.57;;;;;;;20.73;58.31;99871.91;10417986;28;20409;-76
2022/04/27 17:44:14;;;;;;;20.50;5.45;;;;;;;21.36;59.05;100003.09;10419419;28;20045;-78
2022/04/27 17:49:15;;;;;;;25.00;5.47;;;;;;;20.93;59.47;99950.53;10418764;28;20162;-79
2022/04/27 17:54:16;;;;;;;17.98;4.90;;;;;;;20.93;59.80;99969.44;10416410;28;20128;-77
2022/04/27 17:59:17;;;;;;;16.20;4.75;;;;;;;21.08;60.69;100008.56;10418796;28;20499;-77
2022/04/27 18:04:18;;;;;;;31.65;5.55;;;;;;;20.43;61.07;99924.31;10418172;28;20117;-77
2022/04/27 18:09:19;;;;;;;17.25;5.03;;;;;;;20.22;61.51;99906.09;10416545;28;20583;-75
2022/04/27 18:14:20;;;;;;;20.67;5.22;;;;;;;19.60;61.99;99825.97;10417907;28;20041;-75
2022/04/27 18:19:20;;;;;;;23.55;4.90;;;;;;;19.97;62.66;99907.28;10418003;28;20060;-77
2022/04/27 18:24:21;;;;;;;21.05;4.97;;;;;;;20.00;63.10;99947.22;10415453;28;20045;-77
2022/04/27 18:29:23;;;;;;;22.92;5.90;;;;;;;19.35;63.78;99855.88;10414920;28;20045;-75
2022/04/27 18:34:24;;;;;;;17.98;5.00;;;;;;;20.21;63.70;100013.19;10415067;28;20045;-75
2022/04/27 18:39:25;;;;;;;18.15;4.68;;;;;;;20.14;63.92;100009.81;10410602;28;20485;-76
2022/04/27 18:49:57;;;;;;;16.02;4.38;;;;;;;19.98;63.52;100027.56;10376815;28;20506;-76
2022/04/27 18:54:58;;;;;;;17.10;4.83;;;;;;;19.86;63.22;100010.56;10376046;28;20045;-77
2022/04/27 19:00:00;;;;;;;27.73;5.53;;;;;;;19.05;62.98;99886.47;10375053;28;20046;-78
2022/04/27 19:05:01;;;;;;;23.05;4.45;;;;;;;19.63;63.32;99986.34;10391272;28;20041;-76
2022/04/27 19:10:02;;;;;;;17.55;4.43;;;;;;;19.81;63.84;100027.47;10416631;28;20168;-76
2022/04/27 19:15:04;;;;;;;18.10;4.82;;;;;;;19.72;64.21;100028.06;10400734;28;20048;-76
2022/04/27 19:20:05;;;;;;;13.43;4.30;;;;;;;19.63;64.66;100034.84;10394346;28;20417;-76
2022/04/27 19:25:06;;;;;;;18.08;4.80;;;;;;;18.80;64.94;99939.72;10414974;28;20071;-76
2022/04/27 19:30:07;;;;;;;15.30;4.30;;;;;;;18.84;65.09;99925.53;10415974;28;20084;-76
2022/04/27 19:35:08;;;;;;;25.60;6.25;;;;;;;19.31;65.20;100037.84;10414384;28;20048;-76
2022/04/27 19:40:10;;;;;;;13.30;5.60;;;;;;;18.34;66.54;99922.38;10414861;28;20041;-76
2022/04/27 19:45:10;;;;;;;17.08;5.22;;;;;;;18.62;66.69;100002.47;10414688;28;20124;-76
2022/04/27 19:50:12;;;;;;;22.25;4.95;;;;;;;18.40;66.98;99997.59;10414410;28;20136;-76
2022/04/27 19:55:12;;;;;;;32.25;6.00;;;;;;;18.63;67.34;100047.13;10415071;28;20045;-76
2022/04/27 20:00:15;;;;;;;16.42;5.55;;;;;;;18.30;66.95;99999.97;10414252;28;20100;-76
2022/04/27 20:05:17;;;;;;;12.48;6.32;;;;;;;17.97;67.09;99973.53;10414220;28;20052;-76
2022/04/27 20:10:18;;;;;;;15.82;4.63;;;;;;;17.78;66.79;99991.53;10414318;28;20064;-76
2022/04/27 20:15:19;;;;;;;23.52;5.55;;;;;;;18.00;67.98;100070.66;10413461;28;20073;-76
2022/04/27 20:20:20;;;;;;;19.73;6.35;;;;;;;16.22;67.36;99751.91;10414099;28;20065;-76
2022/04/27 20:25:22;;;;;;;11.40;4.13;;;;;;;18.12;66.24;100043.84;10412511;28;20041;-76
2022/04/27 20:30:23;;;;;;;14.60;4.47;;;;;;;18.24;65.68;100047.41;10413366;28;20034;-76
2022/04/27 20:35:24;;;;;;;13.60;4.13;;;;;;;16.61;65.21;99792.81;10412696;28;20042;-76
2022/04/27 20:40:25;;;;;;;10.98;4.10;;;;;;;17.10;65.26;99882.31;10413147;28;20448;-76
2022/04/27 20:45:28;;;;;;;14.82;4.00;;;;;;;18.08;65.79;100060.66;10412707;28;20050;-76
2022/04/27 20:50:30;;;;;;;13.00;4.07;;;;;;;17.21;66.09;99940.66;10418996;28;20047;-76
2022/04/27 20:55:31;;;;;;;15.43;3.90;;;;;;;17.59;66.38;100017.53;10420912;28;20037;-76
2022/04/27 21:00:32;;;;;;;12.50;4.03;;;;;;;17.42;66.75;100019.13;10420518;28;20048;-76
2022/04/27 21:05:33;;;;;;;14.95;4.22;;;;;;;17.17;67.27;99992.28;10421876;28;20041;-76
2022/04/27 21:10:34;;;;;;;10.70;3.60;;;;;;;17.08;67.37;100002.47;10420460;28;20641;-76
2022/04/27 21:15:34;;;;;;;13.75;3.97;;;;;;;15.26;68.19;99795.75;10419859;28;20048;-76
2022/04/27 21:20:36;;;;;;;13.07;4.18;;;;;;;16.62;69.05;100006.28;10420595;28;20041;-76
2022/04/27 21:25:37;;;;;;;13.98;5.13;;;;;;;16.59;70.17;100058.50;10419905;28;20451;-76
2022/04/27 21:30:39;;;;;;;13.90;4.20;;;;;;;15.90;70.03;99952.84;10419452;28;20094;-76
2022/04/27 21:35:40;;;;;;;13.20;3.88;;;;;;;15.83;70.13;99962.78;10419342;28;20048;-76
2022/04/27 21:40:41;;;;;;;13.07;4.72;;;;;;;14.87;70.63;99840.28;10419124;28;20045;-76
2022/04/27 21:45:41;;;;;;;19.67;4.88;;;;;;;15.32;70.71;99893.91;10419710;28;20061;-76
2022/04/27 21:50:43;;;;;;;10.60;4.82;;;;;;;15.24;71.26;99924.38;10419602;28;20049;-76
2022/04/27 21:55:44;;;;;;;15.55;4.38;;;;;;;15.26;71.96;99922.31;10418596;28;20041;-76
2022/04/27 22:01:06;;;;;;;13.57;4.88;;;;;;;15.62;72.21;99997.81;10419097;28;20536;-76
2022/04/27 22:06:06;;;;;;;12.88;4.68;;;;;;;15.31;71.73;99951.13;10419295;28;20034;-76
2022/04/27 22:11:07;;;;;;;20.05;4.50;;;;;;;15.99;71.85;100055.22;10418078;28;20053;-76
2022/04/27 22:16:09;;;;;;;13.75;4.35;;;;;;;15.58;71.25;99983.19;10418171;28;20038;-76
2022/04/27 22:21:11;;;;;;;12.10;4.07;;;;;;;15.11;71.44;99921.72;10400420;28;20041;-76
2022/04/27 22:26:12;;;;;;;11.27;4.10;;;;;;;15.89;71.11;100030.75;10417749;28;20099;-76
2022/04/27 22:31:18;;;;;;;8.43;3.88;;;;;;;16.00;72.01;100064.91;10418343;28;20455;-76
2022/04/27 22:36:20;;;;;;;9.15;4.00;;;;;;;15.85;71.74;100062.47;10417200;28;20157;-76
2022/04/27 22:41:22;;;;;;;8.05;3.67;;;;;;;15.14;72.28;99952.59;10399661;28;20497;-75
2022/04/27 22:46:23;;;;;;;9.88;3.97;;;;;;;15.09;72.23;99963.09;10417167;28;20052;-76
2022/04/27 22:51:24;;;;;;;15.43;4.10;;;;;;;14.92;72.35;99923.38;10416451;28;20132;-76
2022/04/27 22:56:24;;;;;;;11.68;4.60;;;;;;;15.63;72.59;100056.50;10416597;28;20461;-76
2022/04/27 23:01:25;;;;;;;15.35;3.95;;;;;;;15.13;72.13;99989.22;10415550;28;20476;-76
2022/04/27 23:06:26;;;;;;;22.85;5.13;;;;;;;15.26;72.12;100028.53;10416305;28;20049;-76
2022/04/27 23:11:27;;;;;;;7.20;4.00;;;;;;;15.04;72.35;99993.13;10416487;28;20103;-76
2022/04/27 23:16:29;;;;;;;12.40;4.15;;;;;;;14.32;72.33;99885.06;10415292;28;20053;-76
2022/04/27 23:21:30;;;;;;;8.90;4.03;;;;;;;15.43;72.79;100083.28;10415155;28;20076;-76
2022/04/27 23:26:30;;;;;;;8.55;3.97;;;;;;;13.86;72.83;99846.56;10415353;28;20037;-76